createdAt,value
2022-10-12T00:00:41.484Z,101682.47
2022-10-12T00:03:13.257Z,101672.09
2022-10-12T00:05:41.328Z,101666.84
2022-10-12T00:08:10.825Z,101670.94
2022-10-12T00:10:41.935Z,101674.31
2022-10-12T00:13:10.232Z,101674.16
2022-10-12T00:15:39.016Z,101672.44
2022-10-12T00:18:11.049Z,101674.41
2022-10-12T00:20:40.037Z,101675.19
2022-10-12T00:23:08.486Z,101670.69
2022-10-12T00:25:40.026Z,101682.81
2022-10-12T00:28:09.310Z,101674.50
2022-10-12T00:30:41.374Z,101676.44
2022-10-12T00:33:09.094Z,101680.19
2022-10-12T00:35:38.224Z,101661.56
2022-10-12T00:38:05.939Z,101686.84
2022-10-12T00:40:36.503Z,101662.78
2022-10-12T00:43:04.283Z,101686.69
2022-10-12T00:45:33.134Z,101684.91
2022-10-12T00:48:02.277Z,101671.72
2022-10-12T00:50:34.338Z,101670.03
2022-10-12T00:53:07.198Z,101676.63
2022-10-12T00:55:39.198Z,101676.53
2022-10-12T00:58:09.236Z,101672.28
2022-10-12T01:00:39.348Z,101670.03
2022-10-12T01:03:08.494Z,101676.63
2022-10-12T01:05:37.292Z,101678.41
2022-10-12T01:08:06.564Z,101672.75
2022-10-12T01:10:34.454Z,101669.66
2022-10-12T01:13:02.791Z,101674.94
2022-10-12T01:15:35.401Z,101669.75
2022-10-12T01:18:10.996Z,101661.84
2022-10-12T01:21:00.865Z,101666.09
2022-10-12T01:23:58.202Z,101658.28
2022-10-12T01:27:02.948Z,101670.19
2022-10-12T01:30:05.010Z,101670.19
2022-10-12T01:32:39.759Z,101664.09
2022-10-12T01:35:15.731Z,101659.75
2022-10-12T01:37:48.051Z,101656.09
2022-10-12T01:40:20.107Z,101656.09
2022-10-12T01:42:49.286Z,101652.25
2022-10-12T01:45:19.136Z,101651.31
2022-10-12T01:47:52.472Z,101654.03
2022-10-12T01:50:22.932Z,101653.09
2022-10-12T01:53:00.176Z,101642.38
2022-10-12T01:55:39.845Z,101645.56
2022-10-12T01:58:29.236Z,101642.47
2022-10-12T02:01:05.696Z,101649.53
2022-10-12T02:03:42.378Z,101644.16
2022-10-12T02:06:13.351Z,101641.53
2022-10-12T02:08:45.698Z,101641.97
2022-10-12T02:11:16.102Z,101638.03
2022-10-12T02:13:47.915Z,101639.75
2022-10-12T02:16:19.322Z,101638.97
2022-10-12T02:18:52.367Z,101636.13
2022-10-12T02:21:23.035Z,101638.69
2022-10-12T02:23:54.148Z,101641.31
2022-10-12T02:26:22.905Z,101639.53
2022-10-12T02:28:51.521Z,101643.09
2022-10-12T02:31:30.020Z,101640.66
2022-10-12T02:34:05.468Z,101626.94
2022-10-12T02:36:40.691Z,101626.94
2022-10-12T02:39:13.452Z,101631.63
2022-10-12T02:41:47.882Z,101626.84
2022-10-12T02:44:20.578Z,101624.47
2022-10-12T02:46:50.603Z,101610.19
2022-10-12T02:49:21.535Z,101611.41
2022-10-12T02:51:50.528Z,101597.38
2022-10-12T02:54:18.407Z,101604.53
2022-10-12T02:56:47.644Z,101607.16
2022-10-12T02:59:16.367Z,101594.22
2022-10-12T03:01:45.677Z,101587.69
2022-10-12T03:04:13.471Z,101588.53
2022-10-12T03:06:42.746Z,101594.56
2022-10-12T03:09:10.655Z,101584.97
2022-10-12T03:11:43.644Z,101581.41
2022-10-12T03:14:11.789Z,101591.75
2022-10-12T03:16:39.681Z,101586.47
2022-10-12T03:19:07.595Z,101579.13
2022-10-12T03:21:35.312Z,101579.72
2022-10-12T03:24:04.595Z,101587.22
2022-10-12T03:26:32.348Z,101576.72
2022-10-12T03:29:00.086Z,101571.06
2022-10-12T03:31:27.821Z,101578.94
2022-10-12T03:33:57.316Z,101577.44
2022-10-12T03:36:25.106Z,101568.50
2022-10-12T03:38:52.838Z,101569.34
2022-10-12T03:41:21.906Z,101577.16
2022-10-12T03:43:49.636Z,101576.13
2022-10-12T03:46:17.335Z,101578.56
2022-10-12T03:48:45.093Z,101573.31
2022-10-12T03:51:12.857Z,101561.28
2022-10-12T03:53:45.189Z,101569.53
2022-10-12T03:56:13.595Z,101573.13
2022-10-12T03:58:42.734Z,101573.22
2022-10-12T04:01:10.515Z,101568.59
2022-10-12T04:03:38.299Z,101571.09
2022-10-12T04:06:06.347Z,101575.44
2022-10-12T04:08:34.078Z,101572.34
2022-10-12T04:11:01.796Z,101571.38
2022-10-12T04:13:29.533Z,101568.88
2022-10-12T04:16:03.208Z,101559.34
2022-10-12T04:18:30.919Z,101576.63
2022-10-12T04:20:58.726Z,101570.81
2022-10-12T04:23:26.435Z,101573.06
2022-10-12T04:25:54.202Z,101586.97
2022-10-12T04:28:22.050Z,101585.09
2022-10-12T04:30:49.962Z,101577.47
2022-10-12T04:33:19.126Z,101575.13
2022-10-12T04:35:46.841Z,101568.28
2022-10-12T04:38:14.570Z,101574.94
2022-10-12T04:40:42.427Z,101561.41
2022-10-12T04:43:10.116Z,101571.19
2022-10-12T04:45:37.830Z,101567.63
2022-10-12T04:48:05.652Z,101566.88
2022-10-12T04:50:35.891Z,101565.94
2022-10-12T04:53:03.686Z,101570.66
2022-10-12T04:55:31.588Z,101565.19
2022-10-12T04:58:00.641Z,101560.13
2022-10-12T05:00:28.382Z,101565.19
2022-10-12T05:02:56.097Z,101563.50
2022-10-12T05:05:23.778Z,101540.47
2022-10-12T05:07:52.887Z,101567.56
2022-10-12T05:10:20.611Z,101565.75
2022-10-12T05:12:48.328Z,101563.22
2022-10-12T05:15:16.185Z,101555.41
2022-10-12T05:17:43.852Z,101545.81
2022-10-12T05:20:13.267Z,101546.56
2022-10-12T05:22:41.028Z,101552.59
2022-10-12T05:25:11.123Z,101559.16
2022-10-12T05:27:39.231Z,101546.47
2022-10-12T05:30:08.515Z,101547.59
2022-10-12T05:32:36.637Z,101558.97
2022-10-12T05:35:05.047Z,101556.44
2022-10-12T05:37:34.170Z,101559.91
2022-10-12T05:40:04.885Z,101567.03
2022-10-12T05:42:34.649Z,101562.53
2022-10-12T05:45:02.405Z,101557.09
2022-10-12T05:47:30.726Z,101558.97
2022-10-12T05:49:58.450Z,101558.34
2022-10-12T05:52:26.271Z,101565.63
2022-10-12T05:54:54.068Z,101568.94
2022-10-12T05:57:22.032Z,101570.72
2022-10-12T05:59:51.134Z,101572.69
2022-10-12T06:02:19.470Z,101565.63
2022-10-12T06:04:47.236Z,101574.47
2022-10-12T06:07:15.011Z,101571.06
2022-10-12T06:09:44.681Z,101555.75
2022-10-12T06:12:12.752Z,101570.22
2022-10-12T06:14:40.450Z,101582.09
2022-10-12T06:17:09.744Z,101577.00
2022-10-12T06:19:37.673Z,101566.75
2022-10-12T06:22:05.868Z,101553.47
2022-10-12T06:24:33.529Z,101578.13
2022-10-12T06:27:01.288Z,101576.63
2022-10-12T06:29:28.995Z,101570.81
2022-10-12T06:31:56.731Z,101570.31
2022-10-12T06:34:25.851Z,101567.69
2022-10-12T06:36:56.110Z,101583.38
2022-10-12T06:39:26.482Z,101584.13
2022-10-12T06:41:55.022Z,101567.78
2022-10-12T06:44:22.771Z,101565.31
2022-10-12T06:46:50.554Z,101579.72
2022-10-12T06:49:18.279Z,101582.09
2022-10-12T06:51:47.340Z,101575.06
2022-10-12T06:54:15.455Z,101566.50
2022-10-12T06:56:44.221Z,101571.38
2022-10-12T06:59:13.665Z,101573.06
2022-10-12T07:01:41.423Z,101574.75
2022-10-12T07:04:09.152Z,101576.94
2022-10-12T07:06:36.891Z,101575.16
2022-10-12T07:09:06.010Z,101565.56
2022-10-12T07:11:33.963Z,101576.09
2022-10-12T07:14:01.755Z,101573.84
2022-10-12T07:16:30.102Z,101580.25
2022-10-12T07:18:57.810Z,101570.28
2022-10-12T07:21:25.619Z,101573.66
2022-10-12T07:23:54.319Z,101575.19
2022-10-12T07:26:23.399Z,101578.41
2022-10-12T07:28:51.157Z,101574.63
2022-10-12T07:31:18.936Z,101560.06
2022-10-12T07:33:46.637Z,101584.63
2022-10-12T07:36:19.081Z,101584.22
2022-10-12T07:38:49.102Z,101576.03
2022-10-12T07:41:17.154Z,101569.00
2022-10-12T07:43:46.343Z,101557.25
2022-10-12T07:46:14.185Z,101571.72
2022-10-12T07:48:47.193Z,101567.28
2022-10-12T07:51:17.664Z,101570.31
2022-10-12T07:53:45.418Z,101571.78
2022-10-12T07:56:15.970Z,101559.19
2022-10-12T07:58:44.160Z,101560.03
2022-10-12T08:01:13.299Z,101568.38
2022-10-12T08:03:41.267Z,101571.78
2022-10-12T08:06:10.815Z,101569.78
2022-10-12T08:08:39.352Z,101564.34
2022-10-12T08:11:08.337Z,101564.06
2022-10-12T08:13:37.243Z,101571.47
2022-10-12T08:16:07.861Z,101570.31
2022-10-12T08:18:36.982Z,101572.47
2022-10-12T08:21:05.659Z,101573.75
2022-10-12T08:23:37.537Z,101565.09
2022-10-12T08:26:06.601Z,101569.41
2022-10-12T08:28:35.484Z,101574.50
2022-10-12T08:31:07.357Z,101570.31
2022-10-12T08:33:41.913Z,101572.44
2022-10-12T08:36:10.325Z,101569.91
2022-10-12T08:38:39.406Z,101572.28
2022-10-12T08:41:24.283Z,101575.44
2022-10-12T08:44:10.000Z,101570.50
2022-10-12T08:46:41.034Z,101542.06
2022-10-12T08:49:15.820Z,101551.59
2022-10-12T08:51:48.141Z,101560.59
2022-10-12T08:54:18.780Z,101558.56
2022-10-12T08:56:46.715Z,101555.63
2022-10-12T08:59:18.040Z,101538.53
2022-10-12T09:02:00.296Z,101514.25
2022-10-12T09:07:15.926Z,101530.28
2022-10-12T09:09:57.842Z,101550.78
2022-10-12T09:12:38.374Z,101560.91
2022-10-12T09:15:16.153Z,101550.56
2022-10-12T09:17:48.631Z,101561.75
2022-10-12T09:20:21.774Z,101558.66
2022-10-12T09:22:53.526Z,101546.16
2022-10-12T09:25:25.304Z,101553.66
2022-10-12T09:27:54.051Z,101554.25
2022-10-12T09:30:22.357Z,101558.00
2022-10-12T09:33:02.195Z,101533.88
2022-10-12T09:35:30.168Z,101561.31
2022-10-12T09:37:59.668Z,101546.94
2022-10-12T09:40:30.946Z,101566.88
2022-10-12T09:43:01.501Z,101566.97
2022-10-12T09:45:32.336Z,101575.66
2022-10-12T09:48:18.207Z,101567.47
2022-10-12T09:50:52.508Z,101573.63
2022-10-12T09:53:28.675Z,101549.88
2022-10-12T09:56:04.951Z,101562.44
2022-10-12T09:58:42.150Z,101567.59
2022-10-12T10:01:21.683Z,101552.50
2022-10-12T10:03:52.023Z,101563.41
2022-10-12T10:06:26.208Z,101550.16
2022-10-12T10:08:58.459Z,101556.13
2022-10-12T10:11:30.918Z,101538.50
2022-10-12T10:14:01.089Z,101561.22
2022-10-12T10:16:31.174Z,101559.53
2022-10-12T10:19:00.925Z,101547.69
2022-10-12T10:21:32.390Z,101546.75
2022-10-12T10:24:04.650Z,101522.31
2022-10-12T10:26:55.130Z,101546.38
2022-10-12T10:29:34.044Z,101568.38
2022-10-12T10:32:12.464Z,101567.94
2022-10-12T10:34:42.901Z,101568.28
2022-10-12T10:37:24.347Z,101564.91
2022-10-12T10:39:58.028Z,101568.09
2022-10-12T10:42:29.472Z,101553.91
2022-10-12T10:45:02.511Z,101569.13
2022-10-12T10:47:32.629Z,101564.28
2022-10-12T10:50:02.749Z,101555.44
2022-10-12T10:52:32.731Z,101566.88
2022-10-12T10:55:19.500Z,101563.06
2022-10-12T10:57:55.252Z,101559.03
2022-10-12T11:00:38.624Z,101553.13
2022-10-12T11:03:12.794Z,101554.59
2022-10-12T11:05:45.699Z,101555.94
2022-10-12T11:08:20.473Z,101558.50
2022-10-12T11:10:54.477Z,101566.53
2022-10-12T11:13:27.948Z,101559.84
2022-10-12T11:16:00.896Z,101556.53
2022-10-12T11:18:37.450Z,101552.47
2022-10-12T11:21:08.692Z,101552.19
2022-10-12T11:23:43.371Z,101552.28
2022-10-12T11:26:22.008Z,101546.03
2022-10-12T11:28:50.493Z,101540.44
2022-10-12T11:31:25.368Z,101530.06
2022-10-12T11:33:55.535Z,101527.31
2022-10-12T11:36:27.363Z,101527.28
2022-10-12T11:39:04.366Z,101526.09
2022-10-12T11:42:03.328Z,101513.50
2022-10-12T11:44:40.954Z,101514.00
2022-10-12T11:47:17.188Z,101504.09
2022-10-12T11:49:51.504Z,101502.28
2022-10-12T11:52:23.862Z,101500.91
2022-10-12T11:54:58.912Z,101501.50
2022-10-12T11:57:30.895Z,101503.16
2022-10-12T12:00:05.357Z,101494.63
2022-10-12T12:02:43.808Z,101492.81
2022-10-12T12:05:20.632Z,101486.25
2022-10-12T12:07:50.278Z,101491.44
2022-10-12T12:11:01.293Z,101485.16
2022-10-12T12:13:30.553Z,101475.63
2022-10-12T12:16:33.645Z,101473.81
2022-10-12T12:19:42.488Z,101470.19
2022-10-12T12:22:20.037Z,101467.94
2022-10-12T12:25:14.773Z,101469.63
2022-10-12T12:27:44.846Z,101465.16
2022-10-12T12:30:35.991Z,101459.56
2022-10-12T12:33:17.995Z,101458.72
2022-10-12T12:35:54.771Z,101441.91
2022-10-12T12:38:31.295Z,101446.72
2022-10-12T12:41:03.599Z,101459.03
2022-10-12T12:43:53.588Z,101444.44
2022-10-12T12:46:23.827Z,101445.03
2022-10-12T12:49:02.344Z,101444.06
2022-10-12T12:51:43.745Z,101439.47
2022-10-12T12:54:22.444Z,101434.13
2022-10-12T12:57:06.557Z,101439.59
2022-10-12T13:00:17.032Z,101437.25
2022-10-12T13:03:08.633Z,101426.06
2022-10-12T13:06:18.020Z,101412.91
2022-10-12T13:09:06.479Z,101420.94
2022-10-12T13:11:57.528Z,101414.63
2022-10-12T13:14:38.349Z,101309.56
2022-10-12T13:17:35.133Z,101419.09
2022-10-12T13:20:12.375Z,101420.63
2022-10-12T13:22:40.959Z,101406.66
2022-10-12T13:25:15.646Z,101410.69
2022-10-12T13:27:48.532Z,101405.97
2022-10-12T13:30:24.971Z,101400.38
2022-10-12T13:32:57.547Z,101393.09
2022-10-12T13:35:41.772Z,101376.72
2022-10-12T13:38:21.429Z,101384.63
2022-10-12T13:41:02.219Z,101392.59
2022-10-12T13:43:35.092Z,101388.41
2022-10-12T13:46:10.045Z,101377.06
2022-10-12T13:48:58.732Z,101364.06
2022-10-12T13:51:29.080Z,101367.81
2022-10-12T13:53:57.648Z,101371.47
2022-10-12T13:56:27.556Z,101363.22
2022-10-12T13:59:04.150Z,101354.53
2022-10-12T14:01:55.598Z,101355.63
2022-10-12T14:04:24.099Z,101357.47
2022-10-12T14:06:59.126Z,101349.22
2022-10-12T14:09:28.388Z,101337.28
2022-10-12T14:11:57.379Z,101330.41
2022-10-12T14:14:33.178Z,101320.75
2022-10-12T14:17:01.214Z,101334.03
2022-10-12T14:19:42.605Z,101338.81
2022-10-12T14:22:21.660Z,101343.44
2022-10-12T14:25:06.923Z,101342.28
2022-10-12T14:27:35.081Z,101336.84
2022-10-12T14:30:16.684Z,101336.31
2022-10-12T14:32:46.041Z,101325.91
2022-10-12T14:35:32.122Z,101333.22
2022-10-12T14:38:01.375Z,101336.28
2022-10-12T14:40:33.601Z,101324.94
2022-10-12T14:43:08.015Z,101327.44
2022-10-12T14:45:36.456Z,101312.78
2022-10-12T14:48:07.116Z,101320.19
2022-10-12T14:50:34.872Z,101313.88
2022-10-12T14:53:10.186Z,101320.63
2022-10-12T14:55:37.871Z,101315.16
2022-10-12T14:58:08.141Z,101317.13
2022-10-12T15:00:39.705Z,101318.94
2022-10-12T15:03:07.535Z,101313.34
2022-10-12T15:05:35.309Z,101316.00
2022-10-12T15:08:08.766Z,101305.06
2022-10-12T15:10:39.259Z,101307.16
2022-10-12T15:13:06.975Z,101303.78
2022-10-12T15:15:42.174Z,101311.09
2022-10-12T15:18:12.735Z,101295.81
2022-10-12T15:20:45.406Z,101303.53
2022-10-12T15:23:18.279Z,101299.06
2022-10-12T15:25:50.475Z,101293.44
2022-10-12T15:28:20.065Z,101279.97
2022-10-12T15:31:12.183Z,101292.47
2022-10-12T15:33:35.696Z,101294.53
2022-10-12T15:36:03.466Z,101288.97
2022-10-12T15:38:32.721Z,101296.34
2022-10-12T15:41:00.464Z,101295.38
2022-10-12T15:43:28.587Z,101287.38
2022-10-12T15:45:57.388Z,101294.38
2022-10-12T15:48:27.711Z,101284.44
2022-10-12T15:50:55.452Z,101282.19
2022-10-12T15:53:24.727Z,101275.03
2022-10-12T15:55:54.531Z,101277.97
2022-10-12T15:58:23.082Z,101284.56
2022-10-12T16:00:50.954Z,101284.13
2022-10-12T16:03:25.485Z,101281.59
2022-10-12T16:05:54.356Z,101271.53
2022-10-12T16:08:22.095Z,101266.50
2022-10-12T16:10:50.067Z,101255.41
2022-10-12T16:13:19.246Z,101248.16
2022-10-12T16:15:46.992Z,101242.41
2022-10-12T16:18:15.461Z,101244.56
2022-10-12T16:20:46.652Z,101241.50
2022-10-12T16:23:21.325Z,101246.94
2022-10-12T16:25:49.116Z,101236.84
2022-10-12T16:28:16.917Z,101241.88
2022-10-12T16:30:46.046Z,101240.34
2022-10-12T16:33:13.788Z,101222.16
2022-10-12T16:35:41.922Z,101223.41
2022-10-12T16:38:10.044Z,101225.22
2022-10-12T16:40:40.057Z,101228.28
2022-10-12T16:43:07.929Z,101229.97
2022-10-12T16:45:35.903Z,101238.88
2022-10-12T16:48:05.255Z,101226.84
2022-10-12T16:50:33.250Z,101227.81
2022-10-12T16:53:01.256Z,101211.88
2022-10-12T16:55:29.078Z,101194.50
2022-10-12T16:57:56.814Z,101236.31
2022-10-12T17:00:24.513Z,101226.50
2022-10-12T17:02:57.248Z,101243.81
2022-10-12T17:05:26.616Z,101250.81
2022-10-12T17:07:54.212Z,101236.97
2022-10-12T17:10:21.892Z,101244.50
2022-10-12T17:12:49.534Z,101223.75
2022-10-12T17:15:17.327Z,101266.34
2022-10-12T17:17:44.976Z,101269.53
2022-10-12T17:20:12.976Z,101267.25
2022-10-12T17:22:42.027Z,101263.19
2022-10-12T17:25:10.571Z,101269.59
2022-10-12T17:27:39.003Z,101268.88
2022-10-12T17:30:07.731Z,101279.47
2022-10-12T17:32:37.796Z,101285.72
2022-10-12T17:35:06.394Z,101279.03
2022-10-12T17:37:34.691Z,101273.00
2022-10-12T17:40:06.291Z,101280.97
2022-10-12T17:42:34.040Z,101275.78
2022-10-12T17:45:01.790Z,101288.44
2022-10-12T17:47:29.671Z,101290.25
2022-10-12T17:49:57.375Z,101292.91
2022-10-12T17:52:25.083Z,101294.16
2022-10-12T17:54:52.919Z,101299.56
2022-10-12T17:57:22.056Z,101288.75
2022-10-12T17:59:50.292Z,101307.06
2022-10-12T18:02:18.190Z,101301.16
2022-10-12T18:04:46.115Z,101286.28
2022-10-12T18:07:17.508Z,101288.81
2022-10-12T18:09:45.611Z,101298.75
2022-10-12T18:12:13.536Z,101298.88
2022-10-12T18:14:42.849Z,101297.22
2022-10-12T18:17:10.980Z,101294.41
2022-10-12T18:19:38.723Z,101268.69
2022-10-12T18:22:06.518Z,101288.44
2022-10-12T18:24:34.315Z,101291.09
2022-10-12T18:27:02.119Z,101277.97
2022-10-12T18:29:30.158Z,101286.63
2022-10-12T18:31:59.290Z,101276.53
2022-10-12T18:34:27.225Z,101286.63
2022-10-12T18:36:54.973Z,101289.28
2022-10-12T18:39:22.713Z,101284.09
2022-10-12T18:41:51.453Z,101284.00
2022-10-12T18:44:21.057Z,101311.44
2022-10-12T18:46:49.322Z,101304.44
2022-10-12T18:49:18.415Z,101307.22
2022-10-12T18:51:48.642Z,101303.97
2022-10-12T18:54:17.112Z,101292.06
2022-10-12T18:56:45.941Z,101297.84
2022-10-12T18:59:17.430Z,101303.38
2022-10-12T19:01:45.934Z,101294.78
2022-10-12T19:04:14.560Z,101285.44
2022-10-12T19:06:44.258Z,101286.41
2022-10-12T19:09:13.571Z,101287.97
2022-10-12T19:11:41.697Z,101290.50
2022-10-12T19:14:14.193Z,101278.50
2022-10-12T19:16:42.800Z,101282.13
2022-10-12T19:19:18.203Z,101274.53
2022-10-12T19:21:50.126Z,101279.09
2022-10-12T19:24:18.101Z,101286.31
2022-10-12T19:26:46.384Z,101281.16
2022-10-12T19:29:14.520Z,101289.59
2022-10-12T19:31:45.499Z,101288.88
2022-10-12T19:34:15.683Z,101277.09
2022-10-12T19:36:44.066Z,101274.44
2022-10-12T19:39:15.728Z,101255.81
2022-10-12T19:41:43.914Z,101257.63
2022-10-12T19:44:12.813Z,101258.47
2022-10-12T19:46:42.482Z,101261.09
2022-10-12T19:49:13.580Z,101257.97
2022-10-12T19:51:41.816Z,101258.81
2022-10-12T19:54:12.119Z,101246.56
2022-10-12T19:56:41.596Z,101251.25
2022-10-12T19:59:09.351Z,101248.75
2022-10-12T20:01:39.022Z,101252.34
2022-10-12T20:04:09.937Z,101250.53
2022-10-12T20:06:38.232Z,101244.41
2022-10-12T20:09:07.472Z,101257.03
2022-10-12T20:11:38.116Z,101260.88
2022-10-12T20:14:07.996Z,101267.13
2022-10-12T20:16:35.783Z,101264.72
2022-10-12T20:19:03.901Z,101251.88
2022-10-12T20:21:31.778Z,101259.69
2022-10-12T20:23:59.525Z,101250.19
2022-10-12T20:26:27.531Z,101259.22
2022-10-12T20:28:55.750Z,101256.44
2022-10-12T20:31:27.286Z,101260.06
2022-10-12T20:33:56.051Z,101251.16
2022-10-12T20:36:26.828Z,101257.63
2022-10-12T20:38:55.013Z,101253.66
2022-10-12T20:41:23.705Z,101265.69
2022-10-12T20:43:55.651Z,101260.63
2022-10-12T20:46:25.127Z,101271.38
2022-10-12T20:48:57.429Z,101271.38
2022-10-12T20:51:28.657Z,101265.22
2022-10-12T20:53:59.028Z,101270.38
2022-10-12T20:56:26.904Z,101266.75
2022-10-12T20:58:55.170Z,101273.00
2022-10-12T21:01:25.800Z,101274.47
2022-10-12T21:03:53.678Z,101268.72
2022-10-12T21:06:23.278Z,101272.31
2022-10-12T21:08:52.456Z,101281.22
2022-10-12T21:11:20.771Z,101273.63
2022-10-12T21:13:48.660Z,101279.28
2022-10-12T21:16:18.647Z,101277.34
2022-10-12T21:18:47.801Z,101260.03
2022-10-12T21:21:20.355Z,101272.91
2022-10-12T21:23:53.197Z,101277.13
2022-10-12T21:26:22.723Z,101266.75
2022-10-12T21:28:51.088Z,101265.34
2022-10-12T21:31:19.897Z,101275.81
2022-10-12T21:33:49.023Z,101267.38
2022-10-12T21:36:19.087Z,101266.66
2022-10-12T21:38:47.129Z,101264.34
2022-10-12T21:41:16.559Z,101276.38
2022-10-12T21:43:44.923Z,101276.38
2022-10-12T21:46:15.527Z,101273.84
2022-10-12T21:48:43.490Z,101273.00
2022-10-12T21:51:13.343Z,101278.31
2022-10-12T21:53:42.067Z,101277.47
2022-10-12T21:56:14.054Z,101273.75
2022-10-12T21:58:42.200Z,101278.53
2022-10-12T22:01:12.123Z,101274.94
2022-10-12T22:03:40.870Z,101271.56
2022-10-12T22:06:15.080Z,101275.91
2022-10-12T22:08:42.920Z,101282.13
2022-10-12T22:11:14.175Z,101267.59
2022-10-12T22:13:41.952Z,101265.94
2022-10-12T22:16:12.939Z,101268.69
2022-10-12T22:18:41.814Z,101264.25
2022-10-12T22:21:11.654Z,101267.59
2022-10-12T22:23:41.098Z,101260.41
2022-10-12T22:26:10.543Z,101259.78
2022-10-12T22:28:38.359Z,101256.06
2022-10-12T22:31:07.424Z,101261.38
2022-10-12T22:33:35.598Z,101269.41
2022-10-12T22:36:04.172Z,101268.22
2022-10-12T22:38:32.771Z,101263.91
2022-10-12T22:41:06.570Z,101262.94
2022-10-12T22:43:38.930Z,101254.50
2022-10-12T22:46:06.882Z,101236.22
2022-10-12T22:48:35.750Z,101256.91
2022-10-12T22:51:03.913Z,101257.16
2022-10-12T22:53:31.659Z,101253.78
2022-10-12T22:56:01.708Z,101248.00
2022-10-12T22:58:31.182Z,101251.38
2022-10-12T23:01:03.787Z,101248.25
2022-10-12T23:03:33.621Z,101257.50
2022-10-12T23:06:04.551Z,101249.78
2022-10-12T23:08:32.599Z,101255.09
2022-10-12T23:11:06.959Z,101249.44
2022-10-12T23:13:38.411Z,101256.31
2022-10-12T23:16:08.423Z,101249.22
2022-10-12T23:18:36.762Z,101251.84
2022-10-12T23:21:06.202Z,101252.59
2022-10-12T23:23:34.667Z,101252.59
2022-10-12T23:26:04.839Z,101242.75
2022-10-12T23:28:32.631Z,101235.28
2022-10-12T23:31:04.257Z,101236.84
2022-10-12T23:33:31.952Z,101243.94
2022-10-12T23:36:01.046Z,101236.72
2022-10-12T23:38:30.272Z,101241.16
2022-10-12T23:40:58.202Z,101235.53
2022-10-12T23:43:27.080Z,101231.31
2022-10-12T23:45:56.358Z,101222.53
2022-10-12T23:48:27.470Z,101233.13
2022-10-12T23:50:55.195Z,101227.84
2022-10-12T23:53:26.843Z,101229.50
2022-10-12T23:55:55.007Z,101240.94
2022-10-12T23:58:22.739Z,101233.84
